Terminal Aerodrome Forecast
Issued by NWS

Home | Current Version | Previous Version | Text Only | Print | Product List | Glossary On
Versions: 1 2 3 4 5 6 7 8 9 10 11 12 13 14 15 16 17 18 19 20 21
000
FTUS46 KSEW 231600 AAA
TAFHQM
TAF AMD
KHQM 231603Z 2316/2412 08010KT 4SM -RA SCT012 OVC022
      TEMPO 2316/2320 2SM RA BR OVC012
     FM232200 14011KT 5SM -RA BR BKN015 OVC025
     FM240400 14013G20KT 5SM RA BR OVC020=

USA.gov is the U.S. government's official web portal to all federal, state and local government web resources and services.